PWSweather.com
Personal Weather Stations
Station Observations
KWABLAIN13
Ptl Weather, Blaine, WA

Ptl WeatherBlaine, WA

Lat: 48.997393, Lon: -122.748614

Elevation: 57

Station Type: Davis Advantage Pro 2

http://www.ptlnet.net

Latest ConditionsUpdated 9:10:03 AM PST Saturday, Feb 13, 2016
Currently Today's Max Today's Min Today's Average
Temperature 45.6°F7.6°C 46.9°F8.3°C 43.6°F6.4°C 45.4°F7.4°C
Dew Point 42.8°F6.0°C 45.2°F7.3°C 41.7°F5.4°C 42.8°F6.0°C
Winds 3.0 mph S4.8 kmh S 14.0 mph SW22.5 kmh SW - 4.4 mph 7.1 kmh
Wind Gusts 11.0 mph17.7 kmh 18.0 mph29.0 kmh - -
Humidity 90% 94% 87% 91%
Pressure 30.24 in1024.0 mb 30.24 in1024.0 mb 30.12 in1020.0 mb -
Hour Temp Dew Point Humidity Winds Wind Gusts Pressure Precip Precip Rate Daily Precip Total
09:10 AM 45.6°F7.6°C 42.8°F6.0°C 90% 3.0 mph S4.8 kmh S 11.0 mph17.7 kmh 30.24 in1024.0 mb 0.00 in0.0 mm 0.00 in0.0 mm 0.09 in2.3 mm
09:05 AM 45.6°F7.6°C 42.8°F6.0°C 90% 3.0 mph SE4.8 kmh SE 11.0 mph17.7 kmh 30.24 in1024.0 mb 0.00 in0.0 mm 0.00 in0.0 mm 0.09 in2.3 mm
08:50 AM 45.4°F7.4°C 42.6°F5.9°C 90% 4.0 mph SE6.4 kmh SE 10.0 mph16.1 kmh 30.24 in1024.0 mb 0.00 in0.0 mm 0.00 in0.0 mm 0.09 in2.3 mm
08:45 AM 45.4°F7.4°C 42.4°F5.8°C 89% 7.0 mph SSE11.3 kmh SSE 10.0 mph16.1 kmh 30.24 in1024.0 mb 0.00 in0.0 mm 0.00 in0.0 mm 0.09 in2.3 mm
08:30 AM 45.2°F7.3°C 42.5°F5.8°C 90% 4.0 mph S6.4 kmh S 10.0 mph16.1 kmh 30.22 in1023.4 mb 0.00 in0.0 mm 0.00 in0.0 mm 0.09 in2.3 mm
08:25 AM 45.2°F7.3°C 42.2°F5.7°C 89% 2.0 mph S3.2 kmh S 7.0 mph11.3 kmh 30.22 in1023.4 mb 0.00 in0.0 mm 0.00 in0.0 mm 0.09 in2.3 mm
08:10 AM 45.2°F7.3°C 42.2°F5.7°C 89% 2.0 mph SSE3.2 kmh SSE 7.0 mph11.3 kmh 30.22 in1023.4 mb 0.01 in0.3 mm 0.00 in0.0 mm 0.09 in2.3 mm
08:04 AM 45.3°F7.4°C 42.3°F5.7°C 89% 3.0 mph SE4.8 kmh SE 6.0 mph9.7 kmh 30.22 in1023.4 mb 0.01 in0.3 mm 0.00 in0.0 mm 0.09 in2.3 mm
07:49 AM 45.5°F7.5°C 42.2°F5.7°C 88% 3.0 mph SE4.8 kmh SE 15.0 mph24.1 kmh 30.21 in1023.0 mb 0.01 in0.3 mm 0.00 in0.0 mm 0.09 in2.3 mm
07:45 AM 45.5°F7.5°C 42.2°F5.7°C 88% 3.0 mph S4.8 kmh S 15.0 mph24.1 kmh 30.20 in1022.7 mb 0.01 in0.3 mm 0.00 in0.0 mm 0.09 in2.3 mm
07:30 AM 45.6°F7.6°C 42.3°F5.7°C 88% 6.0 mph SE9.7 kmh SE 10.0 mph16.1 kmh 30.20 in1022.7 mb 0.01 in0.3 mm 0.00 in0.0 mm 0.09 in2.3 mm
07:25 AM 45.8°F7.7°C 42.8°F6.0°C 89% 2.0 mph SE3.2 kmh SE 8.0 mph12.9 kmh 30.21 in1023.0 mb 0.01 in0.3 mm 0.04 in1.0 mm 0.09 in2.3 mm
07:10 AM 45.8°F7.7°C 42.8°F6.0°C 89% 3.0 mph S4.8 kmh S 9.0 mph14.5 kmh 30.21 in1023.0 mb 0.00 in0.0 mm 0.00 in0.0 mm 0.08 in2.0 mm
07:05 AM 45.8°F7.7°C 42.8°F6.0°C 89% 3.0 mph S4.8 kmh S 9.0 mph14.5 kmh 30.21 in1023.0 mb 0.00 in0.0 mm 0.00 in0.0 mm 0.08 in2.0 mm
06:50 AM 45.6°F7.6°C 42.6°F5.9°C 89% 7.0 mph SW11.3 kmh SW 14.0 mph22.5 kmh 30.21 in1023.0 mb 0.00 in0.0 mm 0.00 in0.0 mm 0.08 in2.0 mm
06:45 AM 45.5°F7.5°C 42.5°F5.8°C 89% 6.0 mph SE9.7 kmh SE 12.0 mph19.3 kmh 30.21 in1023.0 mb 0.00 in0.0 mm 0.00 in0.0 mm 0.08 in2.0 mm
06:29 AM 45.2°F7.3°C 42.5°F5.8°C 90% 5.0 mph SSE8.0 kmh SSE 8.0 mph12.9 kmh 30.21 in1023.0 mb 0.00 in0.0 mm 0.00 in0.0 mm 0.08 in2.0 mm
06:25 AM 45.1°F7.3°C 42.4°F5.8°C 90% 5.0 mph S8.0 kmh S 8.0 mph12.9 kmh 30.20 in1022.7 mb 0.00 in0.0 mm 0.00 in0.0 mm 0.08 in2.0 mm
06:10 AM 44.5°F6.9°C 42.0°F5.6°C 91% 5.0 mph SE8.0 kmh SE 5.0 mph8.0 kmh 30.21 in1023.0 mb 0.00 in0.0 mm 0.00 in0.0 mm 0.08 in2.0 mm
06:05 AM 44.2°F6.8°C 42.0°F5.6°C 92% 6.0 mph SE9.7 kmh SE 8.0 mph12.9 kmh 30.20 in1022.7 mb 0.00 in0.0 mm 0.00 in0.0 mm 0.08 in2.0 mm
05:50 AM 43.7°F6.5°C 41.8°F5.4°C 93% 3.0 mph SE4.8 kmh SE 3.0 mph4.8 kmh 30.20 in1022.7 mb 0.00 in0.0 mm 0.00 in0.0 mm 0.08 in2.0 mm
05:44 AM 43.6°F6.4°C 41.7°F5.4°C 93% 3.0 mph SE4.8 kmh SE 9.0 mph14.5 kmh 30.20 in1022.7 mb 0.00 in0.0 mm 0.00 in0.0 mm 0.08 in2.0 mm
05:30 AM 43.6°F6.4°C 41.7°F5.4°C 93% 5.0 mph SE8.0 kmh SE 8.0 mph12.9 kmh 30.19 in1022.4 mb 0.00 in0.0 mm 0.00 in0.0 mm 0.08 in2.0 mm
05:25 AM 43.7°F6.5°C 41.8°F5.4°C 93% 5.0 mph SE8.0 kmh SE 8.0 mph12.9 kmh 30.19 in1022.4 mb 0.00 in0.0 mm 0.00 in0.0 mm 0.08 in2.0 mm
05:09 AM 44.2°F6.8°C 42.3°F5.7°C 93% 4.0 mph SE6.4 kmh SE 7.0 mph11.3 kmh 30.19 in1022.4 mb 0.00 in0.0 mm 0.00 in0.0 mm 0.08 in2.0 mm
05:05 AM 44.3°F6.8°C 42.1°F5.6°C 92% 3.0 mph ESE4.8 kmh ESE 7.0 mph11.3 kmh 30.19 in1022.4 mb 0.00 in0.0 mm 0.00 in0.0 mm 0.08 in2.0 mm
04:50 AM 44.6°F7.0°C 42.4°F5.8°C 92% 2.0 mph ESE3.2 kmh ESE 8.0 mph12.9 kmh 30.19 in1022.4 mb 0.00 in0.0 mm 0.00 in0.0 mm 0.08 in2.0 mm
04:45 AM 44.6°F7.0°C 42.1°F5.6°C 91% 6.0 mph SE9.7 kmh SE 8.0 mph12.9 kmh 30.19 in1022.4 mb 0.00 in0.0 mm 0.00 in0.0 mm 0.08 in2.0 mm
04:29 AM 44.9°F7.2°C 42.2°F5.7°C 90% 5.0 mph SE8.0 kmh SE 7.0 mph11.3 kmh 30.19 in1022.4 mb 0.01 in0.3 mm 0.00 in0.0 mm 0.08 in2.0 mm
04:24 AM 44.9°F7.2°C 42.2°F5.7°C 90% 2.0 mph SSE3.2 kmh SSE 6.0 mph9.7 kmh 30.18 in1022.0 mb 0.01 in0.3 mm 0.00 in0.0 mm 0.08 in2.0 mm
04:10 AM 45.1°F7.3°C 42.4°F5.8°C 90% 3.0 mph SSW4.8 kmh SSW 3.0 mph4.8 kmh 30.18 in1022.0 mb 0.01 in0.3 mm 0.00 in0.0 mm 0.08 in2.0 mm
04:05 AM 45.1°F7.3°C 42.4°F5.8°C 90% 8.0 mph SSW12.9 kmh SSW 8.0 mph12.9 kmh 30.18 in1022.0 mb 0.01 in0.3 mm 0.00 in0.0 mm 0.08 in2.0 mm
03:50 AM 45.3°F7.4°C 42.3°F5.7°C 89% 8.0 mph S12.9 kmh S 8.0 mph12.9 kmh 30.17 in1021.7 mb 0.01 in0.3 mm 0.00 in0.0 mm 0.08 in2.0 mm
03:45 AM 45.3°F7.4°C 42.0°F5.6°C 88% 3.0 mph S4.8 kmh S 10.0 mph16.1 kmh 30.17 in1021.7 mb 0.01 in0.3 mm 0.04 in1.0 mm 0.08 in2.0 mm
03:30 AM 45.4°F7.4°C 41.8°F5.4°C 87% 7.0 mph SW11.3 kmh SW 18.0 mph29.0 kmh 30.16 in1021.3 mb 0.00 in0.0 mm 0.00 in0.0 mm 0.07 in1.8 mm
03:25 AM 45.5°F7.5°C 41.9°F5.5°C 87% 9.0 mph SW14.5 kmh SW 18.0 mph29.0 kmh 30.16 in1021.3 mb 0.00 in0.0 mm 0.00 in0.0 mm 0.07 in1.8 mm
03:10 AM 45.4°F7.4°C 41.8°F5.4°C 87% 9.0 mph SSW14.5 kmh SSW 17.0 mph27.4 kmh 30.15 in1021.0 mb 0.00 in0.0 mm 0.00 in0.0 mm 0.07 in1.8 mm
03:05 AM 45.4°F7.4°C 42.1°F5.6°C 88% 10.0 mph S16.1 kmh S 15.0 mph24.1 kmh 30.15 in1021.0 mb 0.00 in0.0 mm 0.00 in0.0 mm 0.07 in1.8 mm
02:50 AM 45.8°F7.7°C 42.8°F6.0°C 89% 14.0 mph SW22.5 kmh SW 14.0 mph22.5 kmh 30.15 in1021.0 mb 0.00 in0.0 mm 0.00 in0.0 mm 0.07 in1.8 mm
02:45 AM 45.7°F7.6°C 42.7°F5.9°C 89% 7.0 mph SW11.3 kmh SW 13.0 mph20.9 kmh 30.15 in1021.0 mb 0.00 in0.0 mm 0.00 in0.0 mm 0.07 in1.8 mm
02:29 AM 45.0°F7.2°C 42.3°F5.7°C 90% 5.0 mph S8.0 kmh S 12.0 mph19.3 kmh 30.14 in1020.7 mb 0.00 in0.0 mm 0.00 in0.0 mm 0.07 in1.8 mm
02:25 AM 45.0°F7.2°C 42.8°F6.0°C 92% 1.0 mph SE1.6 kmh SE 1.0 mph1.6 kmh 30.14 in1020.7 mb 0.00 in0.0 mm 0.00 in0.0 mm 0.07 in1.8 mm
02:10 AM 45.3°F7.4°C 43.1°F6.2°C 92% 1.0 mph SE1.6 kmh SE 6.0 mph9.7 kmh 30.14 in1020.7 mb 0.04 in1.0 mm 0.00 in0.0 mm 0.07 in1.8 mm
02:05 AM 45.4°F7.4°C 43.2°F6.2°C 92% 4.0 mph SE6.4 kmh SE 6.0 mph9.7 kmh 30.14 in1020.7 mb 0.04 in1.0 mm 0.00 in0.0 mm 0.07 in1.8 mm
01:50 AM 45.9°F7.7°C 43.7°F6.5°C 92% 4.0 mph SSW6.4 kmh SSW 4.0 mph6.4 kmh 30.13 in1020.3 mb 0.06 in1.5 mm 0.00 in0.0 mm 0.07 in1.8 mm
01:45 AM 46.1°F7.8°C 44.5°F6.9°C 94% 4.0 mph S6.4 kmh S 7.0 mph11.3 kmh 30.13 in1020.3 mb 0.06 in1.5 mm 0.00 in0.0 mm 0.07 in1.8 mm
01:30 AM 46.4°F8.0°C 44.8°F7.1°C 94% 1.0 mph S1.6 kmh S 5.0 mph8.0 kmh 30.13 in1020.3 mb 0.07 in1.8 mm 0.00 in0.0 mm 0.07 in1.8 mm
01:25 AM 46.4°F8.0°C 44.8°F7.1°C 94% 3.0 mph S4.8 kmh S 4.0 mph6.4 kmh 30.13 in1020.3 mb 0.07 in1.8 mm 0.04 in1.0 mm 0.07 in1.8 mm
01:10 AM 46.8°F8.2°C 45.2°F7.3°C 94% 4.0 mph S6.4 kmh S 9.0 mph14.5 kmh 30.13 in1020.3 mb 0.06 in1.5 mm 0.12 in3.0 mm 0.06 in1.5 mm
01:05 AM 46.7°F8.2°C 45.1°F7.3°C 94% 5.0 mph SW8.0 kmh SW 5.0 mph8.0 kmh 30.13 in1020.3 mb 0.05 in1.3 mm 0.05 in1.3 mm 0.05 in1.3 mm
12:50 AM 46.7°F8.2°C 44.8°F7.1°C 93% 1.0 mph SE1.6 kmh SE 1.0 mph1.6 kmh 30.12 in1020.0 mb 0.01 in0.3 mm 0.00 in0.0 mm 0.01 in0.3 mm
12:45 AM 46.8°F8.2°C 44.6°F7.0°C 92% 1.0 mph SE1.6 kmh SE 4.0 mph6.4 kmh 30.12 in1020.0 mb 0.01 in0.3 mm 0.04 in1.0 mm 0.01 in0.3 mm
12:30 AM 46.9°F8.3°C 44.7°F7.1°C 92% 3.0 mph SE4.8 kmh SE 7.0 mph11.3 kmh 30.12 in1020.0 mb 0.00 in0.0 mm 0.00 in0.0 mm 0.00 in0.0 mm
12:25 AM 46.8°F8.2°C 44.6°F7.0°C 92% 3.0 mph SE4.8 kmh SE 7.0 mph11.3 kmh 30.12 in1020.0 mb 0.00 in0.0 mm 0.00 in0.0 mm 0.00 in0.0 mm
12:10 AM 46.7°F8.2°C 44.2°F6.8°C 91% 6.0 mph ESE9.7 kmh ESE 7.0 mph11.3 kmh 30.12 in1020.0 mb 0.00 in0.0 mm 0.00 in0.0 mm 0.00 in0.0 mm
12:04 AM 46.6°F8.1°C 44.1°F6.7°C 91% 3.0 mph SE4.8 kmh SE 6.0 mph9.7 kmh 30.12 in1020.0 mb 0.00 in0.0 mm 0.00 in0.0 mm 0.00 in0.0 mm